Angier, North Carolina
Current Conditions -  °F | °C
As of 2:35 PM on Sunday 23 Nov 2014 (Local Time) from KHRJ Reporting Station
Light Rain Light Rain  
Wind Chill: 56°   Ceiling: 1000
Heat Index: 56°   Visibility: 5mi
Dew Point: 56°   Wind: 8mph
Humidity: 99%   Direction: 80°E
Pressure: 30.02"   Gusts: NA
Location:  35.51°N, 78.74°W
Report Text: KHRJ 231935Z AUTO 08007KT 5SM -RA BKN010 OVC015 13/13 A3002 RMK AO2 P0001 T01330132
Loading
Personal Weather Stations






























Interactive Weather Map New forecast layout! Learn more

10-Day Weather Forecast

Advertisements
Track Severe Weather on mobile